createdAt,value
2017-08-23T00:01:56.390Z,100667.39
2017-08-23T00:04:27.719Z,100665.71
2017-08-23T00:06:59.048Z,100659.99
2017-08-23T00:09:30.468Z,100664.45
2017-08-23T00:12:02.538Z,100663.31
2017-08-23T00:14:33.914Z,100662.04
2017-08-23T00:17:05.467Z,100662.34
2017-08-23T00:19:36.779Z,100662.48
2017-08-23T00:22:08.246Z,100660.80
2017-08-23T00:24:41.017Z,100663.09
2017-08-23T00:27:12.476Z,100657.00
2017-08-23T00:29:44.957Z,100662.56
2017-08-23T00:32:16.373Z,100666.67
2017-08-23T00:34:47.741Z,100670.49
2017-08-23T00:37:19.143Z,100665.42
2017-08-23T00:39:50.516Z,100666.95
2017-08-23T00:42:22.897Z,100673.10
2017-08-23T00:44:54.259Z,100666.30
2017-08-23T00:47:25.991Z,100658.91
2017-08-23T00:49:57.543Z,100661.13
2017-08-23T00:52:29.240Z,100660.23
2017-08-23T00:55:00.599Z,100656.19
2017-08-23T00:57:31.931Z,100657.67
2017-08-23T01:00:03.946Z,100653.58
2017-08-23T01:02:35.300Z,100650.41
2017-08-23T01:05:07.133Z,100645.45
2017-08-23T01:07:38.509Z,100649.09
2017-08-23T01:10:10.840Z,100650.73
2017-08-23T01:12:43.157Z,100649.84
2017-08-23T01:15:14.497Z,100651.78
2017-08-23T01:17:46.760Z,100645.11
2017-08-23T01:20:18.198Z,100647.63
2017-08-23T01:22:50.522Z,100648.88
2017-08-23T01:25:22.067Z,100648.94
2017-08-23T01:27:53.383Z,100647.69
2017-08-23T01:30:24.952Z,100645.45
2017-08-23T01:32:56.308Z,100646.27
2017-08-23T01:35:27.733Z,100637.34
2017-08-23T01:37:59.084Z,100638.06
2017-08-23T01:40:30.561Z,100630.98
2017-08-23T01:43:02.213Z,100628.17
2017-08-23T01:45:33.558Z,100631.05
2017-08-23T01:48:05.612Z,100619.86
2017-08-23T01:50:36.964Z,100617.63
2017-08-23T01:53:08.328Z,100616.14
2017-08-23T01:55:40.526Z,100619.36
2017-08-23T01:58:12.263Z,100617.17
2017-08-23T02:00:45.437Z,100615.84
2017-08-23T02:03:17.504Z,100613.17
2017-08-23T02:05:50.040Z,100608.30
2017-08-23T02:08:21.415Z,100609.38
2017-08-23T02:10:52.804Z,100607.83
2017-08-23T02:13:24.202Z,100604.90
2017-08-23T02:15:56.022Z,100607.36
2017-08-23T02:18:28.890Z,100599.81
2017-08-23T02:21:00.679Z,100607.69
2017-08-23T02:23:32.564Z,100603.45
2017-08-23T02:26:05.499Z,100606.55
2017-08-23T02:28:37.184Z,100614.58
2017-08-23T02:31:08.677Z,100613.82
2017-08-23T02:33:40.942Z,100613.18
2017-08-23T02:36:12.561Z,100612.86
2017-08-23T02:38:45.223Z,100606.94
2017-08-23T02:41:16.560Z,100609.38
2017-08-23T02:43:47.992Z,100611.13
2017-08-23T02:46:19.522Z,100605.70
2017-08-23T02:48:51.177Z,100608.67
2017-08-23T02:51:22.595Z,100609.52
2017-08-23T02:53:53.964Z,100611.13
2017-08-23T02:56:31.388Z,100613.02
2017-08-23T02:59:03.237Z,100615.08
2017-08-23T03:01:34.596Z,100609.31
2017-08-23T03:04:07.166Z,100612.47
2017-08-23T03:06:38.531Z,100614.95
2017-08-23T03:09:09.873Z,100614.68
2017-08-23T03:11:41.426Z,100610.19
2017-08-23T03:14:14.224Z,100609.12
2017-08-23T03:16:46.883Z,100609.25
2017-08-23T03:19:18.247Z,100600.81
2017-08-23T03:21:49.647Z,100601.30
2017-08-23T03:24:21.616Z,100604.22
2017-08-23T03:26:53.784Z,100612.05
2017-08-23T03:29:25.150Z,100612.58
2017-08-23T03:31:56.475Z,100617.53
2017-08-23T03:34:28.453Z,100611.66
2017-08-23T03:36:59.818Z,100611.49
2017-08-23T03:39:31.298Z,100612.27
2017-08-23T03:42:03.110Z,100617.30
2017-08-23T03:44:34.505Z,100615.63
2017-08-23T03:47:05.945Z,100620.36
2017-08-23T03:49:37.311Z,100625.72
2017-08-23T03:52:08.941Z,100622.74
2017-08-23T03:54:40.510Z,100622.55
2017-08-23T03:57:11.881Z,100625.98
2017-08-23T03:59:45.472Z,100629.32
2017-08-23T04:02:16.977Z,100634.70
2017-08-23T04:04:48.329Z,100630.54
2017-08-23T04:07:19.668Z,100631.15
2017-08-23T04:09:51.009Z,100629.03
2017-08-23T04:12:22.385Z,100631.70
2017-08-23T04:14:53.737Z,100633.82
2017-08-23T04:17:25.105Z,100628.73
2017-08-23T04:19:56.451Z,100628.85
2017-08-23T04:22:27.976Z,100626.33
2017-08-23T04:24:59.328Z,100627.59
2017-08-23T04:27:30.687Z,100628.02
2017-08-23T04:30:03.403Z,100631.47
2017-08-23T04:32:34.726Z,100623.63
2017-08-23T04:35:06.073Z,100614.19
2017-08-23T04:37:37.436Z,100615.70
2017-08-23T04:40:08.832Z,100618.18
2017-08-23T04:42:41.161Z,100620.79
2017-08-23T04:45:12.568Z,100622.03
2017-08-23T04:47:44.814Z,100622.22
2017-08-23T04:50:16.238Z,100622.41
2017-08-23T04:52:48.009Z,100623.05
2017-08-23T04:55:19.379Z,100627.64
2017-08-23T04:57:50.916Z,100627.24
2017-08-23T05:00:22.607Z,100628.80
2017-08-23T05:02:54.015Z,100634.25
2017-08-23T05:05:25.531Z,100628.26
2017-08-23T05:07:56.875Z,100629.54
2017-08-23T05:10:28.294Z,100633.34
2017-08-23T05:12:59.705Z,100628.03
2017-08-23T05:15:31.078Z,100629.77
2017-08-23T05:18:03.659Z,100628.11
2017-08-23T05:20:35.127Z,100633.79
2017-08-23T05:23:06.462Z,100629.81
2017-08-23T05:25:37.827Z,100633.67
2017-08-23T05:28:09.260Z,100637.82
2017-08-23T05:30:41.300Z,100636.71
2017-08-23T05:33:14.749Z,100648.83
2017-08-23T05:35:46.460Z,100641.44
2017-08-23T05:38:17.816Z,100643.95
2017-08-23T05:40:49.421Z,100647.59
2017-08-23T05:43:20.764Z,100642.34
2017-08-23T05:45:52.128Z,100646.76
2017-08-23T05:48:23.474Z,100646.11
2017-08-23T05:50:54.883Z,100645.17
2017-08-23T05:53:26.250Z,100642.26
2017-08-23T05:55:57.643Z,100643.72
2017-08-23T05:58:29.058Z,100644.64
2017-08-23T06:01:00.677Z,100642.27
2017-08-23T06:03:32.095Z,100650.24
2017-08-23T06:06:04.754Z,100643.27
2017-08-23T06:08:36.196Z,100643.95
2017-08-23T06:11:07.687Z,100642.05
2017-08-23T06:13:39.046Z,100648.48
2017-08-23T06:16:11.823Z,100637.42
2017-08-23T06:18:44.861Z,100643.17
2017-08-23T06:21:16.306Z,100637.33
2017-08-23T06:23:47.771Z,100646.22
2017-08-23T06:26:19.631Z,100632.94
2017-08-23T06:28:50.988Z,100634.23
2017-08-23T06:31:22.537Z,100631.30
2017-08-23T06:33:54.078Z,100630.75
2017-08-23T06:36:25.488Z,100624.32
2017-08-23T06:38:56.888Z,100625.91
2017-08-23T06:41:28.299Z,100626.34
2017-08-23T06:43:59.789Z,100624.86
2017-08-23T06:46:31.248Z,100619.84
2017-08-23T06:49:02.853Z,100620.66
2017-08-23T06:51:34.225Z,100618.26
2017-08-23T06:54:08.606Z,100620.77
2017-08-23T06:56:40.526Z,100619.06
2017-08-23T06:59:12.029Z,100612.46
2017-08-23T07:01:44.717Z,100609.53
2017-08-23T07:04:16.142Z,100613.84
2017-08-23T07:06:47.556Z,100611.06
2017-08-23T07:09:18.961Z,100614.50
2017-08-23T07:11:50.361Z,100613.95
2017-08-23T07:14:22.764Z,100615.61
2017-08-23T07:16:54.166Z,100614.91
2017-08-23T07:19:25.784Z,100619.81
2017-08-23T07:21:57.539Z,100622.06
2017-08-23T07:24:28.876Z,100627.89
2017-08-23T07:27:00.358Z,100619.89
2017-08-23T07:29:31.791Z,100621.28
2017-08-23T07:32:04.456Z,100626.97
2017-08-23T07:34:35.832Z,100628.77
2017-08-23T07:37:07.369Z,100627.92
2017-08-23T07:39:41.173Z,100625.70
2017-08-23T07:42:13.640Z,100633.64
2017-08-23T07:44:46.170Z,100627.86
2017-08-23T07:47:17.591Z,100627.34
2017-08-23T07:51:17.929Z,100626.36
2017-08-23T07:53:49.333Z,100632.52
2017-08-23T07:56:20.725Z,100633.91
2017-08-23T07:58:57.754Z,100638.80
2017-08-23T08:01:29.145Z,100634.95
2017-08-23T08:04:00.498Z,100633.77
2017-08-23T08:06:31.850Z,100625.73
2017-08-23T08:09:03.754Z,100619.53
2017-08-23T08:11:35.145Z,100613.98
2017-08-23T08:14:06.838Z,100611.27
2017-08-23T08:16:38.262Z,100612.17
2017-08-23T08:19:09.636Z,100614.75
2017-08-23T08:21:41.068Z,100621.44
2017-08-23T08:24:13.927Z,100626.56
2017-08-23T08:26:47.786Z,100631.78
2017-08-23T08:29:19.404Z,100632.71
2017-08-23T08:31:50.777Z,100632.72
2017-08-23T08:34:22.195Z,100629.02
2017-08-23T08:36:54.049Z,100628.58
2017-08-23T08:41:50.776Z,100632.19
2017-08-23T08:44:22.096Z,100629.12
2017-08-23T08:46:54.490Z,100631.03
2017-08-23T08:49:25.884Z,100630.52
2017-08-23T08:51:57.206Z,100615.55
2017-08-23T08:54:28.554Z,100612.41
2017-08-23T08:56:59.937Z,100613.56
2017-08-23T08:59:33.610Z,100616.44
2017-08-23T09:02:05.504Z,100610.89
2017-08-23T09:04:37.015Z,100607.03
2017-08-23T09:07:08.780Z,100606.13
2017-08-23T09:09:40.725Z,100598.97
2017-08-23T09:12:12.404Z,100596.80
2017-08-23T09:14:45.385Z,100599.04
2017-08-23T09:17:16.684Z,100591.76
2017-08-23T09:19:49.067Z,100591.16
2017-08-23T09:22:20.394Z,100587.80
2017-08-23T09:24:51.753Z,100589.83
2017-08-23T09:27:23.361Z,100588.33
2017-08-23T09:29:54.705Z,100588.30
2017-08-23T09:32:26.048Z,100590.94
2017-08-23T09:34:57.654Z,100593.05
2017-08-23T09:37:29.101Z,100593.81
2017-08-23T09:40:00.440Z,100590.78
2017-08-23T09:42:32.831Z,100591.55
2017-08-23T09:45:05.360Z,100591.50
2017-08-23T09:47:37.125Z,100584.12
2017-08-23T09:50:08.494Z,100586.48
2017-08-23T09:52:40.150Z,100585.87
2017-08-23T09:55:11.568Z,100584.70
2017-08-23T09:57:45.724Z,100578.92
2017-08-23T10:00:18.541Z,100579.66
2017-08-23T10:02:52.442Z,100568.44
2017-08-23T10:11:28.240Z,100569.93
2017-08-23T10:13:59.640Z,100569.00
2017-08-23T10:16:31.647Z,100553.26
2017-08-23T10:19:03.685Z,100558.30
2017-08-23T10:21:36.536Z,100561.90
2017-08-23T10:24:09.546Z,100559.19
2017-08-23T10:26:41.226Z,100555.20
2017-08-23T10:29:14.537Z,100548.23
2017-08-23T10:31:48.984Z,100550.81
2017-08-23T10:34:24.383Z,100547.14
2017-08-23T10:36:57.427Z,100539.80
2017-08-23T10:39:30.211Z,100537.71
2017-08-23T10:42:03.056Z,100540.20
2017-08-23T10:44:34.700Z,100533.66
2017-08-23T10:47:07.640Z,100530.61
2017-08-23T10:49:39.236Z,100528.31
2017-08-23T10:52:10.535Z,100528.52
2017-08-23T10:54:42.277Z,100523.93
2017-08-23T10:57:13.891Z,100523.51
2017-08-23T10:59:45.212Z,100525.19
2017-08-23T11:02:19.162Z,100527.10
2017-08-23T11:04:50.954Z,100519.17
2017-08-23T11:07:25.121Z,100520.50
2017-08-23T11:09:56.831Z,100520.50
2017-08-23T11:12:30.831Z,100517.25
2017-08-23T11:15:03.992Z,100520.73
2017-08-23T11:17:35.834Z,100520.42
2017-08-23T11:59:58.695Z,100482.67
2017-08-23T12:20:07.988Z,100490.16
2017-08-23T14:31:29.113Z,100388.48
2017-08-23T14:34:00.469Z,100385.20
2017-08-23T14:36:32.094Z,100382.91
2017-08-23T14:39:03.778Z,100374.43
2017-08-23T14:41:35.553Z,100370.16
2017-08-23T14:44:06.871Z,100363.48
2017-08-23T14:46:38.179Z,100363.66
2017-08-23T14:49:10.225Z,100364.77
2017-08-23T14:51:41.646Z,100354.28
2017-08-23T14:54:13.254Z,100360.53
2017-08-23T14:56:44.884Z,100354.38
2017-08-23T14:59:16.613Z,100347.45
2017-08-23T15:01:47.972Z,100347.19
2017-08-23T15:04:19.803Z,100341.71
2017-08-23T15:06:51.181Z,100345.52
2017-08-23T15:09:24.258Z,100338.30
2017-08-23T15:11:56.032Z,100338.77
2017-08-23T15:14:28.201Z,100335.59
2017-08-23T15:16:59.505Z,100334.27
2017-08-23T15:19:31.099Z,100341.63
2017-08-23T15:22:03.401Z,100331.67
2017-08-23T15:24:34.741Z,100337.02
2017-08-23T15:27:06.355Z,100333.76
2017-08-23T15:29:37.645Z,100329.56
2017-08-23T15:32:09.266Z,100321.36
2017-08-23T15:34:40.563Z,100326.36
2017-08-23T15:37:11.860Z,100322.30
2017-08-23T15:39:43.455Z,100316.01
2017-08-23T15:42:14.795Z,100316.80
2017-08-23T15:44:46.175Z,100318.32
2017-08-23T15:47:17.819Z,100313.08
2017-08-23T15:49:49.161Z,100315.63
2017-08-23T15:52:22.739Z,100310.28
2017-08-23T15:54:54.148Z,100308.28
2017-08-23T15:57:29.051Z,100304.29
2017-08-23T16:00:00.871Z,100305.32
2017-08-23T16:02:32.185Z,100299.88
2017-08-23T16:05:04.711Z,100295.42
2017-08-23T16:07:36.345Z,100294.84
2017-08-23T16:10:07.663Z,100293.61
2017-08-23T16:12:39.041Z,100297.89
2017-08-23T16:15:10.824Z,100291.10
2017-08-23T16:17:42.186Z,100293.60
2017-08-23T16:20:13.826Z,100293.55
2017-08-23T16:22:45.200Z,100288.44
2017-08-23T16:25:16.526Z,100286.92
2017-08-23T16:27:49.031Z,100292.17
2017-08-23T16:30:20.543Z,100292.70
2017-08-23T16:32:51.910Z,100297.17
2017-08-23T16:35:24.552Z,100289.06
2017-08-23T16:37:55.881Z,100288.91
2017-08-23T16:40:28.229Z,100284.19
2017-08-23T16:42:59.541Z,100287.19
2017-08-23T16:45:30.865Z,100285.16
2017-08-23T16:48:05.208Z,100286.19
2017-08-23T16:50:37.483Z,100285.63
2017-08-23T16:53:09.600Z,100284.90
2017-08-23T16:55:41.124Z,100288.48
2017-08-23T16:58:12.535Z,100284.58
2017-08-23T17:00:44.139Z,100287.55
2017-08-23T17:03:15.612Z,100291.04
2017-08-23T17:05:47.196Z,100286.12
2017-08-23T17:08:18.569Z,100289.64
2017-08-23T17:10:49.891Z,100301.09
2017-08-23T17:13:22.580Z,100302.30
2017-08-23T17:15:54.075Z,100301.94
2017-08-23T17:18:27.327Z,100299.95
2017-08-23T17:20:58.930Z,100308.25
2017-08-23T17:23:30.273Z,100314.52
2017-08-23T17:26:02.598Z,100307.44
2017-08-23T17:28:34.221Z,100313.37
2017-08-23T17:31:05.553Z,100318.68
2017-08-23T17:33:36.855Z,100319.10
2017-08-23T17:36:08.529Z,100318.55
2017-08-23T17:38:39.889Z,100317.12
2017-08-23T17:41:11.215Z,100320.73
2017-08-23T17:43:42.833Z,100319.42
2017-08-23T17:46:14.425Z,100324.18
2017-08-23T17:48:45.748Z,100329.48
2017-08-23T17:51:17.317Z,100332.84
2017-08-23T17:53:48.833Z,100333.95
2017-08-23T17:56:20.277Z,100326.73
2017-08-23T17:58:51.928Z,100327.16
2017-08-23T18:01:26.078Z,100325.11
2017-08-23T18:03:57.534Z,100326.06
2017-08-23T18:06:29.104Z,100330.01
2017-08-23T18:09:00.422Z,100336.92
2017-08-23T18:11:31.744Z,100337.22
2017-08-23T18:14:04.607Z,100330.00
2017-08-23T18:16:35.965Z,100338.16
2017-08-23T18:19:07.280Z,100340.03
2017-08-23T18:21:38.565Z,100347.38
2017-08-23T18:24:09.877Z,100343.14
2017-08-23T18:26:41.469Z,100340.04
2017-08-23T18:29:12.817Z,100346.22
2017-08-23T18:31:44.137Z,100352.98
2017-08-23T18:34:15.715Z,100358.53
2017-08-23T18:36:47.050Z,100363.45
2017-08-23T18:39:18.493Z,100363.47
2017-08-23T18:41:49.851Z,100362.67
2017-08-23T18:44:21.731Z,100356.84
2017-08-23T18:46:53.386Z,100365.45
2017-08-23T18:49:26.181Z,100369.55
2017-08-23T18:51:57.607Z,100367.22
2017-08-23T18:54:29.597Z,100368.55
2017-08-23T18:57:01.060Z,100369.98
2017-08-23T18:59:32.658Z,100379.25
2017-08-23T19:02:04.839Z,100373.24
2017-08-23T19:04:36.164Z,100368.97
2017-08-23T19:07:07.749Z,100360.98
2017-08-23T19:09:39.067Z,100364.29
2017-08-23T19:12:10.396Z,100369.70
2017-08-23T19:14:42.242Z,100378.43
2017-08-23T19:17:13.653Z,100377.52
2017-08-23T19:19:44.982Z,100380.96
2017-08-23T19:22:16.344Z,100374.59
2017-08-23T19:24:47.701Z,100376.53
2017-08-23T19:27:19.314Z,100374.38
2017-08-23T19:29:50.625Z,100379.39
2017-08-23T19:32:22.709Z,100371.17
2017-08-23T19:34:54.321Z,100373.83
2017-08-23T19:37:26.604Z,100380.69
2017-08-23T19:39:57.967Z,100380.48
2017-08-23T19:42:29.287Z,100384.19
2017-08-23T19:45:00.737Z,100384.95
2017-08-23T19:47:32.815Z,100386.99
2017-08-23T19:50:05.300Z,100375.98
2017-08-23T19:52:36.859Z,100379.61
2017-08-23T19:55:08.506Z,100375.72
2017-08-23T19:57:40.968Z,100378.02
2017-08-23T20:00:12.288Z,100375.28
2017-08-23T20:02:43.629Z,100377.05
2017-08-23T20:05:14.941Z,100373.80
2017-08-23T20:07:46.548Z,100379.45
2017-08-23T20:10:17.920Z,100386.00
2017-08-23T20:12:49.230Z,100388.11
2017-08-23T20:15:21.128Z,100385.80
2017-08-23T20:17:52.442Z,100388.49
2017-08-23T20:20:24.525Z,100388.11
2017-08-23T20:22:55.839Z,100377.30
2017-08-23T20:25:28.017Z,100373.64
2017-08-23T20:27:59.951Z,100374.45
2017-08-23T20:30:31.377Z,100383.03
2017-08-23T20:33:03.544Z,100380.99
2017-08-23T20:35:35.341Z,100374.10
2017-08-23T20:38:06.760Z,100373.34
2017-08-23T20:40:38.532Z,100385.84
2017-08-23T20:43:09.916Z,100374.45
2017-08-23T20:45:41.367Z,100367.40
2017-08-23T20:48:13.084Z,100366.20
2017-08-23T20:50:44.472Z,100366.23
2017-08-23T20:53:15.825Z,100367.34
2017-08-23T20:55:47.687Z,100363.87
2017-08-23T20:58:19.158Z,100360.25
2017-08-23T21:00:50.787Z,100361.31
2017-08-23T21:03:22.652Z,100367.17
2017-08-23T21:05:54.284Z,100371.81
2017-08-23T21:08:26.432Z,100375.03
2017-08-23T21:10:57.769Z,100385.59
2017-08-23T21:13:29.147Z,100383.28
2017-08-23T21:16:00.796Z,100382.19
2017-08-23T21:18:32.383Z,100382.63
2017-08-23T21:21:04.057Z,100377.27
2017-08-23T21:23:35.346Z,100378.27
2017-08-23T21:26:13.884Z,100382.41
2017-08-23T21:28:45.713Z,100380.16
2017-08-23T21:31:17.044Z,100382.02
2017-08-23T21:33:48.770Z,100379.50
2017-08-23T21:36:20.709Z,100382.80
2017-08-23T21:38:52.072Z,100380.80
2017-08-23T21:41:25.956Z,100386.16
2017-08-23T21:43:57.278Z,100387.83
2017-08-23T21:46:28.595Z,100380.86
2017-08-23T21:49:00.716Z,100385.33
2017-08-23T21:51:32.126Z,100383.42
2017-08-23T21:54:04.184Z,100384.42
2017-08-23T21:56:35.504Z,100385.93
2017-08-23T21:59:07.144Z,100386.95
2017-08-23T22:01:38.516Z,100386.13
2017-08-23T22:04:09.875Z,100378.76
2017-08-23T22:06:41.718Z,100383.39
2017-08-23T22:09:13.083Z,100378.27
2017-08-23T22:11:44.607Z,100381.37
2017-08-23T22:14:16.319Z,100375.84
2017-08-23T22:16:47.727Z,100383.37
2017-08-23T22:19:27.142Z,100378.92
2017-08-23T22:21:59.027Z,100372.89
2017-08-23T22:24:30.352Z,100366.95
2017-08-23T22:27:01.712Z,100369.30
2017-08-23T22:29:33.361Z,100370.16
2017-08-23T22:32:05.230Z,100374.08
2017-08-23T22:34:36.573Z,100369.37
2017-08-23T22:37:08.345Z,100369.48
2017-08-23T22:39:39.682Z,100364.68
2017-08-23T22:42:11.026Z,100370.83
2017-08-23T22:44:42.700Z,100369.88
2017-08-23T22:47:14.037Z,100369.81
2017-08-23T22:49:45.374Z,100369.21
2017-08-23T22:52:17.185Z,100373.16
2017-08-23T22:54:48.541Z,100372.00
2017-08-23T22:57:20.726Z,100372.21
2017-08-23T22:59:52.312Z,100373.63
2017-08-23T23:02:25.396Z,100362.54
2017-08-23T23:04:57.171Z,100362.36
2017-08-23T23:07:29.233Z,100357.27
2017-08-23T23:10:00.830Z,100356.31
2017-08-23T23:12:32.851Z,100357.40
2017-08-23T23:15:04.643Z,100351.37
2017-08-23T23:17:36.024Z,100345.16
2017-08-23T23:20:07.724Z,100347.41
2017-08-23T23:22:39.197Z,100353.97
2017-08-23T23:25:11.591Z,100348.51
2017-08-23T23:27:43.341Z,100343.80
2017-08-23T23:30:14.727Z,100347.64
2017-08-23T23:32:46.208Z,100348.97
2017-08-23T23:35:17.994Z,100344.69
2017-08-23T23:37:49.302Z,100355.23
2017-08-23T23:40:21.947Z,100353.89
2017-08-23T23:42:53.667Z,100353.33
2017-08-23T23:45:25.925Z,100347.38
2017-08-23T23:47:57.499Z,100343.03
2017-08-23T23:50:29.094Z,100340.24
2017-08-23T23:53:00.576Z,100333.88
2017-08-23T23:55:32.236Z,100332.79
2017-08-23T23:58:05.150Z,100327.45
